Time;durP1;ratioP1;P1;durP2;ratioP2;P2;SDS_P1;SDS_P2;PMS_P1;PMS_P2;Temp;Humidity;BMP_temperature;BMP_pressure;BME280_temperature;BME280_humidity;BME280_pressure;Samples;Min_cycle;Max_cycle;Signal;HPM_P1;HPM_P2
2022/03/04 00:01:06;;;;;;;53.90;30.00;;;;;;;0.83;86.28;100860.41;107987;1244;61024;-69
2022/03/04 00:03:35;;;;;;;39.40;20.70;;;;;;;0.86;86.36;100864.09;108164;1241;71659;-69
2022/03/04 00:06:05;;;;;;;56.40;30.50;;;;;;;0.85;85.61;100862.39;107980;1244;72558;-70
2022/03/04 00:08:34;;;;;;;63.70;31.70;;;;;;;0.90;86.43;100856.94;107986;1243;68433;-69
2022/03/04 00:11:04;;;;;;;52.50;30.60;;;;;;;0.94;86.13;100856.15;107946;1243;72000;-69
2022/03/04 00:13:34;;;;;;;49.00;28.50;;;;;;;0.98;86.33;100852.77;107727;1244;63122;-72
2022/03/04 00:16:03;;;;;;;58.30;31.20;;;;;;;1.00;86.30;100850.64;108016;1243;62679;-68
2022/03/04 00:18:32;;;;;;;60.00;32.50;;;;;;;0.96;85.82;100845.27;108016;1242;74836;-71
2022/03/04 00:21:02;;;;;;;48.70;28.80;;;;;;;0.98;84.97;100842.48;107772;1243;72659;-68
2022/03/04 00:23:32;;;;;;;51.00;29.70;;;;;;;1.08;85.54;100842.17;108054;1243;71321;-67
2022/03/04 00:26:04;;;;;;;55.50;30.20;;;;;;;1.05;85.18;100841.73;107984;1243;72981;-69
2022/03/04 00:28:33;;;;;;;52.20;29.70;;;;;;;1.12;86.31;100842.89;107979;1243;61368;-68
2022/03/04 00:31:03;;;;;;;43.30;26.60;;;;;;;1.14;86.70;100845.05;108048;1242;61660;-72
2022/03/04 00:33:32;;;;;;;55.00;29.30;;;;;;;1.18;86.99;100844.09;107960;1243;75297;-69
2022/03/04 00:36:01;;;;;;;58.50;30.60;;;;;;;1.14;87.38;100843.85;107986;1243;72243;-69
2022/03/04 00:38:30;;;;;;;42.60;25.80;;;;;;;1.13;87.85;100846.30;107931;1242;70230;-67
2022/03/04 00:41:00;;;;;;;41.50;25.60;;;;;;;1.11;87.68;100848.41;108064;1242;72838;-68
2022/03/04 00:43:29;;;;;;;37.20;22.40;;;;;;;1.07;87.67;100846.47;107976;1243;59764;-69
2022/03/04 00:45:58;;;;;;;48.40;26.60;;;;;;;1.04;86.96;100846.73;107994;1243;59510;-67
2022/03/04 00:48:27;;;;;;;53.70;28.20;;;;;;;1.06;86.56;100848.20;108061;1242;74231;-69
2022/03/04 00:50:57;;;;;;;52.60;28.50;;;;;;;1.09;86.78;100846.77;107804;1243;70363;-71
2022/03/04 00:53:26;;;;;;;52.50;24.70;;;;;;;1.09;86.57;100844.36;107901;1243;69653;-70
2022/03/04 00:55:55;;;;;;;51.00;28.90;;;;;;;1.05;85.70;100841.20;107936;1243;71305;-68
2022/03/04 00:58:25;;;;;;;51.30;29.60;;;;;;;1.02;85.81;100841.82;107930;1243;59737;-70
2022/03/04 01:00:54;;;;;;;54.30;29.20;;;;;;;1.01;85.57;100844.62;107943;1244;59566;-70
2022/03/04 01:03:24;;;;;;;47.80;24.00;;;;;;;0.97;85.55;100841.63;107958;1242;74744;-70
2022/03/04 01:05:53;;;;;;;58.60;31.90;;;;;;;0.98;85.59;100840.91;107994;1244;70783;-70
2022/03/04 01:08:22;;;;;;;49.80;28.90;;;;;;;1.03;86.47;100840.92;107999;1244;68673;-68
2022/03/04 01:10:52;;;;;;;58.20;29.70;;;;;;;1.05;86.92;100837.28;108098;1243;72995;-68
2022/03/04 01:13:23;;;;;;;54.30;29.80;;;;;;;1.05;86.79;100837.27;108011;1241;60433;-69
2022/03/04 01:15:52;;;;;;;52.40;30.10;;;;;;;1.05;86.87;100830.91;107736;1244;62293;-72
2022/03/04 01:18:21;;;;;;;40.50;20.80;;;;;;;1.11;87.21;100832.45;107918;1244;71911;-72
2022/03/04 01:20:50;;;;;;;62.00;31.40;;;;;;;1.08;85.78;100831.52;108233;1243;70689;-70
2022/03/04 01:23:20;;;;;;;49.40;28.10;;;;;;;1.06;85.96;100829.70;107936;1244;69798;-69
2022/03/04 01:25:52;;;;;;;53.60;25.20;;;;;;;1.06;85.51;100823.69;108201;1243;73890;-71
2022/03/04 01:28:21;;;;;;;41.90;24.30;;;;;;;1.12;85.75;100822.84;107984;1244;61406;-69
2022/03/04 01:30:50;;;;;;;47.10;24.20;;;;;;;1.04;84.86;100827.72;107977;1243;59659;-68
2022/03/04 01:33:20;;;;;;;56.90;28.50;;;;;;;1.01;84.93;100830.02;107997;1242;74724;-69
2022/03/04 01:35:49;;;;;;;53.20;29.10;;;;;;;0.97;85.19;100832.73;107812;1244;72107;-69
2022/03/04 01:38:18;;;;;;;51.00;26.30;;;;;;;0.98;85.74;100830.30;107954;1243;68707;-69
2022/03/04 01:40:47;;;;;;;56.40;31.50;;;;;;;1.03;86.03;100830.14;107694;1243;71389;-70
2022/03/04 01:43:16;;;;;;;37.00;19.80;;;;;;;1.04;86.57;100829.44;107804;1243;60380;-70
2022/03/04 01:45:45;;;;;;;49.10;27.70;;;;;;;1.06;85.68;100831.23;107852;1244;60054;-71
2022/03/04 01:48:16;;;;;;;50.60;27.60;;;;;;;1.01;85.78;100830.88;107898;1243;70647;-70
2022/03/04 01:50:51;;;;;;;50.10;27.70;;;;;;;1.03;86.00;100828.77;107513;1244;72315;-71
2022/03/04 01:53:21;;;;;;;51.50;28.80;;;;;;;1.03;86.25;100832.02;107872;1242;70106;-69
2022/03/04 01:55:50;;;;;;;56.00;28.50;;;;;;;1.00;85.68;100830.89;107606;1244;73389;-69
2022/03/04 01:58:19;;;;;;;38.80;20.70;;;;;;;1.05;86.13;100826.30;107829;1242;61309;-70
2022/03/04 02:00:50;;;;;;;60.00;32.90;;;;;;;1.06;86.34;100826.95;107612;1241;60599;-70
2022/03/04 02:03:19;;;;;;;61.30;30.90;;;;;;;1.06;86.49;100826.77;107920;1242;75433;-70
2022/03/04 02:05:49;;;;;;;56.20;29.70;;;;;;;1.07;85.94;100827.09;107878;1241;73394;-70
2022/03/04 02:08:18;;;;;;;45.80;26.00;;;;;;;1.03;85.81;100826.37;107755;1241;71262;-69
2022/03/04 02:10:48;;;;;;;52.10;28.70;;;;;;;1.03;86.07;100828.95;108086;1239;72305;-69
2022/03/04 02:13:17;;;;;;;53.00;30.20;;;;;;;1.03;86.00;100828.92;108133;1241;61093;-69
2022/03/04 02:15:46;;;;;;;49.30;25.70;;;;;;;1.07;86.37;100829.86;107861;1241;61055;-69
2022/03/04 02:18:17;;;;;;;49.70;29.30;;;;;;;1.13;86.35;100830.34;108117;1240;72381;-71
2022/03/04 02:20:51;;;;;;;47.40;26.90;;;;;;;1.14;86.24;100831.84;107998;1243;71316;-70
2022/03/04 02:23:21;;;;;;;52.90;28.90;;;;;;;1.12;85.89;100835.70;108126;1241;70392;-71
2022/03/04 02:25:52;;;;;;;53.40;28.60;;;;;;;1.12;86.04;100835.17;108153;1241;73922;-69
2022/03/04 02:28:22;;;;;;;59.20;31.20;;;;;;;1.10;86.36;100835.41;108025;1241;61395;-71
2022/03/04 02:30:51;;;;;;;54.70;30.10;;;;;;;1.08;86.36;100832.55;108443;1241;60986;-69
2022/03/04 02:33:20;;;;;;;52.80;29.30;;;;;;;1.11;86.08;100832.31;108245;1241;74311;-72
2022/03/04 02:35:50;;;;;;;57.00;30.20;;;;;;;1.12;86.28;100827.98;108203;1241;71774;-71
2022/03/04 02:38:18;;;;;;;53.10;30.20;;;;;;;1.13;86.34;100828.61;108326;1241;70421;-71
2022/03/04 02:40:47;;;;;;;48.80;28.30;;;;;;;1.13;86.43;100821.94;108104;1241;75353;-69
2022/03/04 02:43:16;;;;;;;50.10;27.90;;;;;;;1.08;86.58;100818.15;108011;1241;60164;-69
2022/03/04 02:45:45;;;;;;;55.70;29.80;;;;;;;1.08;86.96;100815.75;108159;1241;60972;-70
2022/03/04 02:48:15;;;;;;;60.50;29.70;;;;;;;1.06;86.65;100822.16;108178;1241;74381;-69
2022/03/04 02:50:44;;;;;;;41.20;26.10;;;;;;;1.04;86.15;100823.42;108188;1241;73075;-70
2022/03/04 02:53:13;;;;;;;45.30;24.10;;;;;;;1.07;86.06;100819.55;108173;1241;69051;-71
2022/03/04 02:55:42;;;;;;;51.00;26.80;;;;;;;1.05;85.74;100820.97;108225;1241;72530;-70
2022/03/04 02:58:11;;;;;;;48.20;25.30;;;;;;;1.05;85.78;100816.54;108126;1240;60447;-70
2022/03/04 03:00:40;;;;;;;51.50;27.40;;;;;;;0.98;85.30;100819.33;108137;1241;60083;-70
2022/03/04 03:03:10;;;;;;;46.80;27.30;;;;;;;1.00;85.84;100821.81;108147;1241;74363;-69
2022/03/04 03:05:39;;;;;;;50.20;27.40;;;;;;;0.94;85.49;100825.98;108070;1242;70701;-69
2022/03/04 03:08:08;;;;;;;49.70;26.10;;;;;;;1.00;85.28;100825.10;108070;1241;69827;-69
2022/03/04 03:10:38;;;;;;;52.10;26.30;;;;;;;0.94;85.09;100826.30;108093;1241;72261;-70
2022/03/04 03:13:07;;;;;;;40.00;22.80;;;;;;;0.92;85.37;100823.44;107915;1241;63545;-70
2022/03/04 03:15:38;;;;;;;45.60;26.40;;;;;;;0.89;85.37;100825.60;108085;1239;61596;-71
2022/03/04 03:18:07;;;;;;;44.30;26.10;;;;;;;0.86;85.48;100823.65;108138;1241;74442;-69
2022/03/04 03:20:36;;;;;;;44.30;25.00;;;;;;;0.78;85.45;100824.03;108103;1241;72544;-70
2022/03/04 03:23:05;;;;;;;52.70;28.00;;;;;;;0.78;85.55;100823.70;108012;1243;69051;-70
2022/03/04 03:25:34;;;;;;;45.10;24.10;;;;;;;0.73;85.73;100822.81;107778;1244;70793;-68
2022/03/04 03:28:03;;;;;;;54.80;28.40;;;;;;;0.65;85.85;100825.98;108098;1241;62534;-68
2022/03/04 03:30:33;;;;;;;51.90;27.10;;;;;;;0.69;85.97;100821.90;107856;1241;60996;-69
2022/03/04 03:33:02;;;;;;;34.70;17.80;;;;;;;0.66;85.78;100824.91;107989;1241;75419;-69
2022/03/04 03:35:31;;;;;;;53.30;28.30;;;;;;;0.65;85.88;100818.45;108136;1241;70538;-68
2022/03/04 03:38:00;;;;;;;55.60;29.80;;;;;;;0.63;86.18;100821.25;108189;1241;69974;-68
2022/03/04 03:40:29;;;;;;;49.00;26.40;;;;;;;0.63;86.37;100820.71;108165;1241;74578;-68
2022/03/04 03:42:58;;;;;;;57.50;28.80;;;;;;;0.65;86.30;100827.50;108281;1241;61701;-70
2022/03/04 03:45:27;;;;;;;59.20;31.40;;;;;;;0.65;86.43;100829.40;108011;1241;61841;-69
2022/03/04 03:47:56;;;;;;;33.80;18.10;;;;;;;0.67;86.67;100833.95;108154;1241;76042;-70
2022/03/04 03:50:25;;;;;;;40.80;21.80;;;;;;;0.67;86.63;100835.33;107805;1241;69117;-71
2022/03/04 03:52:54;;;;;;;55.00;28.40;;;;;;;0.67;86.43;100836.21;108124;1241;66956;-70
2022/03/04 03:55:23;;;;;;;56.80;29.40;;;;;;;0.68;86.93;100838.39;107873;1244;73920;-71
2022/03/04 03:57:52;;;;;;;40.40;23.40;;;;;;;0.69;86.76;100838.55;108094;1241;60365;-70
2022/03/04 04:00:26;;;;;;;55.30;30.30;;;;;;;0.73;87.12;100839.77;107985;1241;59681;-72
2022/03/04 04:02:55;;;;;;;56.80;27.60;;;;;;;0.75;87.10;100838.17;107944;1241;74992;-70
2022/03/04 04:05:24;;;;;;;39.20;22.40;;;;;;;0.77;87.17;100842.58;108221;1239;71832;-71
2022/03/04 04:07:53;;;;;;;44.80;21.30;;;;;;;0.73;86.97;100844.41;108059;1244;67955;-71
2022/03/04 04:10:22;;;;;;;50.20;27.60;;;;;;;0.68;86.71;100843.02;108065;1241;72919;-70
2022/03/04 04:12:54;;;;;;;58.30;28.60;;;;;;;0.69;86.84;100849.67;107831;1241;61374;-71
2022/03/04 04:15:23;;;;;;;52.60;28.50;;;;;;;0.68;86.81;100847.83;108246;1241;60917;-70
2022/03/04 04:17:52;;;;;;;69.70;31.30;;;;;;;0.68;86.86;100848.85;107877;1241;75228;-70
2022/03/04 04:20:21;;;;;;;42.30;22.30;;;;;;;0.67;86.61;100849.21;108168;1241;72970;-70
2022/03/04 04:22:49;;;;;;;53.50;27.70;;;;;;;0.71;86.92;100847.39;108108;1241;70896;-70
2022/03/04 04:25:18;;;;;;;47.20;26.40;;;;;;;0.63;86.54;100851.39;108195;1241;72193;-70
2022/03/04 04:27:48;;;;;;;50.40;26.60;;;;;;;0.59;86.56;100851.33;107950;1241;62297;-71
2022/03/04 04:30:16;;;;;;;48.30;25.70;;;;;;;0.58;86.55;100852.23;108271;1241;60993;-70
2022/03/04 04:32:46;;;;;;;51.70;25.20;;;;;;;0.59;86.64;100852.71;107913;1243;73113;-72
2022/03/04 04:35:15;;;;;;;58.90;28.50;;;;;;;0.63;86.88;100855.19;107960;1241;73150;-71
2022/03/04 04:37:45;;;;;;;61.40;29.30;;;;;;;0.63;86.58;100854.66;107801;1241;71444;-72
2022/03/04 04:40:14;;;;;;;57.70;28.30;;;;;;;0.68;86.71;100855.54;108004;1241;74959;-71
2022/03/04 04:42:43;;;;;;;52.20;27.10;;;;;;;0.68;86.31;100859.13;107867;1242;62520;-71
2022/03/04 04:45:13;;;;;;;47.30;26.50;;;;;;;0.70;86.19;100859.76;107939;1241;62137;-70
2022/03/04 04:47:42;;;;;;;45.90;25.60;;;;;;;0.73;86.39;100860.21;107964;1241;75856;-74
2022/03/04 04:50:10;;;;;;;50.70;26.50;;;;;;;0.73;86.50;100863.94;108034;1241;72592;-71
2022/03/04 04:52:39;;;;;;;37.40;21.50;;;;;;;0.76;86.64;100867.45;108013;1241;69938;-71
2022/03/04 04:55:09;;;;;;;54.20;27.30;;;;;;;0.76;85.44;100865.41;108008;1241;72340;-71
2022/03/04 04:57:38;;;;;;;41.50;19.40;;;;;;;0.75;85.49;100872.30;107862;1241;60533;-71
2022/03/04 05:00:07;;;;;;;41.20;21.20;;;;;;;0.80;85.39;100878.14;107797;1243;62394;-70
2022/03/04 05:02:37;;;;;;;42.50;22.50;;;;;;;0.80;85.17;100875.09;107754;1244;72934;-71
2022/03/04 05:05:07;;;;;;;42.70;24.50;;;;;;;0.78;84.58;100874.28;107763;1244;70349;-71
2022/03/04 05:07:35;;;;;;;49.00;26.80;;;;;;;0.78;84.86;100876.86;108038;1244;70569;-71
2022/03/04 05:10:05;;;;;;;50.20;25.90;;;;;;;0.79;84.95;100878.20;107862;1244;72515;-71
2022/03/04 05:12:34;;;;;;;45.30;26.80;;;;;;;0.79;84.38;100882.81;107827;1244;59738;-73
2022/03/04 05:15:04;;;;;;;39.40;23.30;;;;;;;0.86;84.90;100879.02;107740;1244;59431;-74
2022/03/04 05:17:32;;;;;;;48.20;25.30;;;;;;;0.81;84.03;100884.81;107773;1244;72456;-73
2022/03/04 05:20:02;;;;;;;41.60;22.50;;;;;;;0.96;84.86;100886.27;108014;1241;70954;-73
2022/03/04 05:22:30;;;;;;;43.40;24.50;;;;;;;1.06;85.43;100890.23;107723;1241;70538;-72
2022/03/04 05:24:59;;;;;;;49.70;25.60;;;;;;;1.15;85.23;100889.11;107760;1244;72558;-72
2022/03/04 05:27:28;;;;;;;42.30;21.90;;;;;;;1.19;84.83;100894.13;107831;1241;60860;-70
2022/03/04 05:29:57;;;;;;;44.50;24.80;;;;;;;1.14;84.08;100892.75;108045;1240;59204;-70
2022/03/04 05:32:27;;;;;;;44.00;25.50;;;;;;;1.19;84.47;100898.62;108025;1241;75376;-70
2022/03/04 05:34:56;;;;;;;47.00;24.50;;;;;;;1.17;84.15;100902.44;108086;1241;73541;-74
2022/03/04 05:37:25;;;;;;;45.90;24.30;;;;;;;1.19;84.44;100908.73;108085;1241;71345;-70
2022/03/04 05:39:53;;;;;;;42.40;24.20;;;;;;;1.19;83.77;100907.70;107847;1243;74511;-75
2022/03/04 05:42:22;;;;;;;43.50;23.60;;;;;;;1.22;84.07;100906.06;107807;1243;59703;-72
2022/03/04 05:44:52;;;;;;;44.80;23.60;;;;;;;1.12;81.83;100909.95;107929;1244;59736;-71
2022/03/04 05:47:20;;;;;;;51.40;26.80;;;;;;;1.22;82.77;100913.27;108125;1241;73672;-72
2022/03/04 05:49:49;;;;;;;43.90;25.30;;;;;;;1.23;83.10;100916.48;107905;1244;72529;-73
2022/03/04 05:52:18;;;;;;;44.50;24.60;;;;;;;1.23;82.46;100919.59;108067;1243;67894;-74
2022/03/04 05:54:47;;;;;;;42.20;24.80;;;;;;;1.34;84.04;100919.26;107523;1241;358204;-72
2022/03/04 05:57:16;;;;;;;38.40;21.70;;;;;;;1.35;84.01;100922.65;108109;1241;59612;-72
2022/03/04 05:59:45;;;;;;;29.60;16.00;;;;;;;1.40;83.85;100924.90;108104;1242;60693;-78
2022/03/04 06:02:14;;;;;;;34.60;19.10;;;;;;;1.38;82.08;100923.23;108110;1243;72248;-74
2022/03/04 06:04:43;;;;;;;41.40;23.40;;;;;;;1.37;81.83;100928.61;108371;1241;71217;-72
2022/03/04 06:07:12;;;;;;;36.30;22.20;;;;;;;1.33;81.71;100927.67;108281;1241;69654;-71
2022/03/04 06:09:41;;;;;;;38.40;21.40;;;;;;;1.31;81.63;100934.79;108223;1241;73258;-71
2022/03/04 06:12:09;;;;;;;32.70;18.70;;;;;;;1.31;81.83;100931.02;108292;1241;59993;-71
2022/03/04 06:14:38;;;;;;;36.60;21.10;;;;;;;1.33;81.29;100932.98;108251;1241;59456;-70
2022/03/04 06:17:07;;;;;;;34.80;21.00;;;;;;;1.31;80.88;100931.18;108126;1243;71721;-71
2022/03/04 06:19:40;;;;;;;32.30;19.00;;;;;;;1.35;80.82;100938.11;108095;1243;70346;-72
2022/03/04 06:22:09;;;;;;;38.70;22.80;;;;;;;1.34;80.61;100944.30;107861;1244;71509;-70
2022/03/04 06:24:37;;;;;;;37.60;21.90;;;;;;;1.37;81.24;100943.35;107927;1244;73135;-72
2022/03/04 06:27:06;;;;;;;33.70;19.30;;;;;;;1.40;80.72;100947.20;107754;1244;60089;-69
2022/03/04 06:29:35;;;;;;;36.70;20.30;;;;;;;1.50;80.30;100946.20;107962;1241;58751;-69
2022/03/04 06:32:04;;;;;;;34.50;19.20;;;;;;;1.46;80.17;100950.29;108091;1244;71093;-72
2022/03/04 06:34:34;;;;;;;34.10;18.80;;;;;;;1.48;80.34;100952.63;108060;1244;71871;-71
2022/03/04 06:37:03;;;;;;;30.00;17.70;;;;;;;1.50;80.12;100954.80;107938;1242;69450;-73
2022/03/04 06:39:32;;;;;;;34.20;18.50;;;;;;;1.49;79.70;100952.06;107882;1241;72681;-73
2022/03/04 06:42:05;;;;;;;;;;;;;;;1.46;80.08;100959.21;108162;1241;60510;-70
2022/03/04 06:44:34;;;;;;;32.80;17.70;;;;;;;1.48;79.25;100958.30;108214;1241;59570;-74
2022/03/04 06:47:04;;;;;;;22.40;12.90;;;;;;;1.38;78.60;100954.63;108020;1244;72590;-74
2022/03/04 06:49:33;;;;;;;34.80;20.30;;;;;;;1.39;78.84;100959.61;107935;1244;71436;-74
2022/03/04 06:52:02;;;;;;;31.20;18.70;;;;;;;1.24;79.19;100930.73;107970;1244;72340;-76
2022/03/04 06:54:33;;;;;;;32.80;18.50;;;;;;;1.43;79.38;100955.55;107976;1244;74703;-73
2022/03/04 06:57:02;;;;;;;29.40;17.80;;;;;;;1.44;78.78;100968.89;108089;1244;62480;-74
2022/03/04 06:59:31;;;;;;;27.80;17.20;;;;;;;1.41;78.49;100966.58;108041;1244;59626;-76
2022/03/04 07:02:00;;;;;;;30.10;18.00;;;;;;;1.46;78.60;100964.02;108147;1244;74375;-72
2022/03/04 07:04:29;;;;;;;33.20;18.90;;;;;;;1.53;78.77;100967.23;108151;1244;73195;-75
2022/03/04 07:06:58;;;;;;;25.80;15.20;;;;;;;1.59;78.52;100964.83;107924;1244;68447;-74
2022/03/04 07:09:27;;;;;;;31.90;18.00;;;;;;;1.47;78.25;100965.70;108090;1243;72259;-75
2022/03/04 07:11:56;;;;;;;33.70;19.70;;;;;;;1.51;78.35;100967.30;107792;1246;60599;-73
2022/03/04 07:14:27;;;;;;;32.20;19.40;;;;;;;1.65;78.23;100965.69;107876;1245;59307;-74
2022/03/04 07:16:56;;;;;;;28.90;16.40;;;;;;;1.77;78.38;100968.71;107927;1244;70895;-73
2022/03/04 07:19:25;;;;;;;25.30;14.50;;;;;;;1.89;76.94;100975.36;108036;1244;71831;-74
2022/03/04 07:21:53;;;;;;;27.40;15.70;;;;;;;1.89;76.93;100964.02;107826;1244;71012;-74
2022/03/04 07:24:23;;;;;;;30.30;17.30;;;;;;;1.97;76.13;100963.77;108139;1244;74119;-75
2022/03/04 07:26:52;;;;;;;25.60;16.20;;;;;;;1.92;76.55;100963.59;108108;1244;61265;-73
2022/03/04 07:29:20;;;;;;;29.60;16.90;;;;;;;2.11;76.60;100972.77;107892;1244;61705;-73
2022/03/04 07:31:50;;;;;;;25.10;14.80;;;;;;;2.24;76.43;100963.91;108019;1244;74052;-72
2022/03/04 07:34:21;;;;;;;30.80;18.10;;;;;;;2.33;75.57;100968.23;108053;1244;72075;-75
2022/03/04 07:36:52;;;;;;;26.20;15.90;;;;;;;2.38;75.25;100968.91;108107;1242;70980;-74
2022/03/04 07:39:21;;;;;;;29.20;17.60;;;;;;;2.50;74.68;100964.55;107969;1244;73951;-74
2022/03/04 07:41:51;;;;;;;25.00;15.90;;;;;;;2.49;75.70;100967.69;107982;1244;61742;-73
2022/03/04 07:44:28;;;;;;;24.60;16.10;;;;;;;2.53;75.32;100970.47;107767;1244;62248;-73
2022/03/04 07:46:58;;;;;;;26.90;14.90;;;;;;;2.43;75.35;100973.22;107944;1244;75945;-75
2022/03/04 07:49:27;;;;;;;25.30;15.30;;;;;;;2.51;74.64;100976.56;108077;1244;72813;-74
2022/03/04 07:51:56;;;;;;;25.10;13.90;;;;;;;2.48;75.08;100976.48;108105;1244;70147;-74
2022/03/04 07:54:24;;;;;;;20.30;12.40;;;;;;;2.60;74.06;100974.87;108118;1244;74314;-74
2022/03/04 07:56:55;;;;;;;22.40;13.80;;;;;;;2.55;73.53;100977.97;108157;1244;58805;-72
2022/03/04 07:59:24;;;;;;;24.10;15.50;;;;;;;2.58;73.48;100977.36;108097;1244;59558;-72
2022/03/04 08:01:53;;;;;;;22.90;13.50;;;;;;;2.50;73.40;100976.95;108169;1244;76005;-77
2022/03/04 08:04:22;;;;;;;22.30;14.20;;;;;;;2.49;73.48;100977.48;108109;1243;72630;-74
2022/03/04 08:06:51;;;;;;;25.20;15.50;;;;;;;2.48;73.85;100978.05;107842;1244;71155;-75
2022/03/04 08:09:19;;;;;;;25.50;15.70;;;;;;;2.45;74.19;100972.13;107825;1244;73700;-72
2022/03/04 08:11:49;;;;;;;22.40;14.30;;;;;;;2.52;74.11;100976.17;108014;1244;60660;-72
2022/03/04 08:14:21;;;;;;;21.10;13.90;;;;;;;2.60;73.68;100971.93;107819;1244;59777;-73
2022/03/04 08:16:56;;;;;;;23.00;13.60;;;;;;;2.65;74.17;100976.26;107572;1244;75863;-74
2022/03/04 08:19:25;;;;;;;20.60;11.80;;;;;;;2.69;73.91;100973.18;107849;1244;70338;-72
2022/03/04 08:21:54;;;;;;;24.80;14.20;;;;;;;2.78;74.01;100972.52;107742;1244;67924;-75
2022/03/04 08:24:43;;;;;;;20.10;12.20;;;;;;;2.93;73.63;100968.70;107615;1244;73379;-73
2022/03/04 08:27:12;;;;;;;19.70;12.80;;;;;;;3.04;72.67;100973.83;107828;1244;60381;-74
2022/03/04 08:29:41;;;;;;;19.30;12.10;;;;;;;3.07;72.80;100971.61;107915;1244;61467;-73
2022/03/04 08:32:10;;;;;;;17.40;11.60;;;;;;;3.14;72.34;100975.49;107801;1244;72921;-72
2022/03/04 08:34:40;;;;;;;18.70;12.20;;;;;;;3.14;71.91;100972.40;107596;1244;72104;-73
2022/03/04 08:37:09;;;;;;;22.00;12.40;;;;;;;3.06;71.86;100974.41;107670;1244;70119;-72
2022/03/04 08:39:37;;;;;;;18.20;12.60;;;;;;;3.03;72.79;100975.06;107651;1244;74688;-74
2022/03/04 08:42:08;;;;;;;16.20;10.60;;;;;;;3.08;72.21;100977.45;107721;1244;59590;-72
2022/03/04 08:44:37;;;;;;;16.20;10.10;;;;;;;3.11;71.75;100980.27;107765;1244;62651;-71
2022/03/04 08:47:07;;;;;;;17.60;11.80;;;;;;;3.09;70.73;100979.14;107809;1244;72218;-73
2022/03/04 08:49:36;;;;;;;22.30;13.30;;;;;;;3.09;71.30;100991.19;107788;1244;71381;-72
2022/03/04 08:52:06;;;;;;;23.80;13.60;;;;;;;3.05;71.68;100988.76;107800;1243;71248;-74
2022/03/04 08:54:35;;;;;;;14.50;9.00;;;;;;;3.10;71.54;100989.60;107811;1244;75478;-73
2022/03/04 08:57:05;;;;;;;16.30;10.70;;;;;;;3.08;71.07;100986.07;107920;1244;59656;-72
2022/03/04 08:59:34;;;;;;;18.30;12.10;;;;;;;3.02;70.71;100986.96;107620;1244;61321;-72
2022/03/04 09:02:04;;;;;;;19.10;11.60;;;;;;;2.96;70.49;100991.13;107795;1244;74182;-74
2022/03/04 09:04:33;;;;;;;21.20;13.00;;;;;;;3.04;70.38;100982.92;107895;1244;72881;-74
2022/03/04 09:07:03;;;;;;;17.50;10.50;;;;;;;2.97;70.67;100988.34;107959;1244;69194;-74
2022/03/04 09:09:35;;;;;;;20.70;12.40;;;;;;;3.11;70.06;100985.77;107919;1243;74560;-74
2022/03/04 09:12:07;;;;;;;19.50;12.10;;;;;;;3.15;70.14;100990.96;107849;1244;59688;-73
2022/03/04 09:14:36;;;;;;;18.00;12.20;;;;;;;3.13;70.78;100991.20;107757;1244;60887;-71
2022/03/04 09:17:05;;;;;;;16.80;10.90;;;;;;;3.28;71.56;100987.52;107746;1244;72939;-74
2022/03/04 09:19:34;;;;;;;17.90;10.20;;;;;;;3.39;69.17;100988.48;107879;1244;72526;-71
2022/03/04 09:22:23;;;;;;;18.40;11.60;;;;;;;3.41;69.07;100993.08;108012;1244;69059;-71
2022/03/04 09:24:53;;;;;;;19.50;11.60;;;;;;;3.45;69.69;100993.11;108007;1244;72585;-74
2022/03/04 09:27:22;;;;;;;17.20;10.60;;;;;;;3.30;68.97;100990.92;108092;1244;60642;-71
2022/03/04 09:29:50;;;;;;;19.30;11.70;;;;;;;3.24;69.33;100985.63;108165;1244;59930;-78
2022/03/04 09:32:20;;;;;;;18.30;11.50;;;;;;;3.23;69.19;100983.59;108035;1244;73190;-74
2022/03/04 09:34:50;;;;;;;19.00;11.80;;;;;;;3.24;69.13;100981.67;107803;1245;69555;-76
2022/03/04 09:37:19;;;;;;;19.50;12.60;;;;;;;3.14;69.46;100984.29;108184;1244;69220;-73
2022/03/04 09:39:48;;;;;;;20.80;12.10;;;;;;;3.28;69.47;100985.33;107980;1244;74948;-73
2022/03/04 09:42:18;;;;;;;23.90;14.10;;;;;;;3.33;69.74;100982.52;108023;1244;61848;-72
2022/03/04 09:44:47;;;;;;;19.60;12.90;;;;;;;3.42;69.07;100985.95;108086;1244;59515;-71
2022/03/04 09:47:22;;;;;;;18.30;12.70;;;;;;;3.26;68.71;100982.98;108018;1244;72693;-73
2022/03/04 09:49:54;;;;;;;20.30;12.40;;;;;;;3.42;68.86;100985.64;107748;1244;71903;-73
2022/03/04 09:52:23;;;;;;;18.40;11.20;;;;;;;3.41;69.16;100979.13;107990;1244;70354;-74
2022/03/04 09:54:53;;;;;;;15.60;10.40;;;;;;;3.57;68.23;100980.42;108088;1244;75845;-73
2022/03/04 09:57:22;;;;;;;17.70;11.50;;;;;;;3.62;66.89;100977.29;108099;1243;61186;-74
2022/03/04 09:59:51;;;;;;;19.60;11.80;;;;;;;3.61;67.85;100980.58;107950;1244;60945;-74
2022/03/04 10:02:20;;;;;;;18.90;11.90;;;;;;;3.61;68.12;100973.86;108095;1244;72981;-76
2022/03/04 10:05:01;;;;;;;18.50;12.10;;;;;;;3.67;67.81;100971.42;108132;1244;70351;-75
2022/03/04 10:07:47;;;;;;;20.60;12.30;;;;;;;3.73;68.59;100975.11;107873;1244;71524;-75
2022/03/04 10:10:22;;;;;;;19.00;12.40;;;;;;;3.70;68.28;100976.63;107593;1244;74868;-74
2022/03/04 10:12:57;;;;;;;21.80;13.30;;;;;;;3.78;68.21;100973.70;107867;1244;60839;-73
2022/03/04 10:15:26;;;;;;;19.30;11.40;;;;;;;3.75;68.29;100971.92;107893;1244;60886;-72
2022/03/04 10:18:03;;;;;;;17.30;10.00;;;;;;;3.84;67.76;100967.59;107752;1244;75334;-72
2022/03/04 10:20:36;;;;;;;22.30;12.10;;;;;;;3.89;66.97;100966.54;107608;1244;69957;-73
2022/03/04 10:23:27;;;;;;;15.40;10.20;;;;;;;3.93;66.70;100965.86;107805;1244;69714;-73
2022/03/04 10:25:59;;;;;;;20.70;11.90;;;;;;;3.77;66.69;100970.14;107849;1244;71133;-71
2022/03/04 10:28:32;;;;;;;17.70;11.60;;;;;;;3.66;67.42;100966.25;107832;1244;59492;-74
2022/03/04 10:31:01;;;;;;;21.00;12.10;;;;;;;3.58;68.00;100971.58;107694;1244;60660;-74
2022/03/04 10:34:06;;;;;;;21.80;12.90;;;;;;;3.60;67.91;100971.17;107694;1244;73602;-73
2022/03/04 10:36:55;;;;;;;22.40;13.60;;;;;;;3.63;67.88;100973.42;107796;1244;71734;-74
2022/03/04 10:39:24;;;;;;;19.80;12.30;;;;;;;3.60;67.58;100967.71;107730;1244;71486;-75
2022/03/04 10:41:55;;;;;;;23.50;13.80;;;;;;;3.51;67.62;100972.04;107868;1244;75271;-73
2022/03/04 10:44:26;;;;;;;17.70;11.70;;;;;;;3.34;68.22;100974.91;107763;1244;61791;-74
2022/03/04 10:46:59;;;;;;;15.60;10.30;;;;;;;3.34;68.22;100968.70;107731;1244;60335;-74
2022/03/04 10:49:30;;;;;;;20.40;12.00;;;;;;;3.32;67.98;100972.23;107596;1244;71723;-76
2022/03/04 10:52:08;;;;;;;20.50;11.50;;;;;;;3.24;68.66;100974.10;107952;1244;73174;-74
2022/03/04 10:54:38;;;;;;;18.10;10.10;;;;;;;3.34;68.00;100968.38;107904;1244;71604;-76
2022/03/04 10:57:07;;;;;;;20.60;12.60;;;;;;;3.31;68.08;100957.48;107903;1244;74039;-72
2022/03/04 10:59:53;;;;;;;20.00;12.70;;;;;;;3.42;68.38;100957.88;107787;1244;59663;-72
2022/03/04 11:02:43;;;;;;;23.10;12.30;;;;;;;3.56;68.00;100957.17;107865;1244;60053;-74
2022/03/04 11:05:13;;;;;;;18.20;11.60;;;;;;;3.82;67.58;100952.34;107672;1244;73832;-73
2022/03/04 11:07:43;;;;;;;19.40;11.30;;;;;;;3.94;66.92;100953.44;107973;1244;72999;-74
2022/03/04 11:10:12;;;;;;;23.30;12.10;;;;;;;3.97;66.37;100958.65;107977;1244;70392;-75
2022/03/04 11:12:42;;;;;;;18.50;10.60;;;;;;;4.03;66.05;100954.46;107936;1244;71459;-75
2022/03/04 11:15:13;;;;;;;20.70;11.80;;;;;;;3.92;65.77;100954.20;107773;1244;58578;-75
2022/03/04 11:17:44;;;;;;;14.10;7.20;;;;;;;3.89;66.42;100958.61;107722;1244;59945;-74
2022/03/04 11:20:15;;;;;;;19.80;10.40;;;;;;;3.84;66.02;100958.48;108241;1242;72306;-73
2022/03/04 11:22:49;;;;;;;21.20;11.80;;;;;;;3.83;66.19;100957.46;109092;1243;70213;-75